sensor_id;sensor_type;location;lat;lon;timestamp;P1;durP1;ratioP1;P2;durP2;ratioP2
27039;SDS011;14589;51.578;7.306;2022-07-11T00:01:38;3.53;;;1.60;;
27039;SDS011;14589;51.578;7.306;2022-07-11T00:04:04;3.58;;;2.10;;
27039;SDS011;14589;51.578;7.306;2022-07-11T00:06:29;6.47;;;2.20;;
27039;SDS011;14589;51.578;7.306;2022-07-11T00:08:55;4.60;;;2.17;;
27039;SDS011;14589;51.578;7.306;2022-07-11T00:11:20;5.88;;;2.60;;
27039;SDS011;14589;51.578;7.306;2022-07-11T00:13:45;3.78;;;2.28;;
27039;SDS011;14589;51.578;7.306;2022-07-11T00:16:11;5.75;;;2.65;;
27039;SDS011;14589;51.578;7.306;2022-07-11T00:18:37;5.65;;;2.70;;
27039;SDS011;14589;51.578;7.306;2022-07-11T00:21:03;5.90;;;2.70;;
27039;SDS011;14589;51.578;7.306;2022-07-11T00:23:28;4.65;;;2.80;;
27039;SDS011;14589;51.578;7.306;2022-07-11T00:25:54;6.55;;;2.78;;
27039;SDS011;14589;51.578;7.306;2022-07-11T00:28:19;3.72;;;2.20;;
27039;SDS011;14589;51.578;7.306;2022-07-11T00:30:45;7.80;;;2.47;;
27039;SDS011;14589;51.578;7.306;2022-07-11T00:33:10;5.45;;;2.03;;
27039;SDS011;14589;51.578;7.306;2022-07-11T00:35:36;3.50;;;2.28;;
27039;SDS011;14589;51.578;7.306;2022-07-11T00:38:01;5.75;;;2.22;;
27039;SDS011;14589;51.578;7.306;2022-07-11T00:40:27;4.18;;;2.42;;
27039;SDS011;14589;51.578;7.306;2022-07-11T00:42:52;2.58;;;2.17;;
27039;SDS011;14589;51.578;7.306;2022-07-11T00:45:18;5.43;;;2.08;;
27039;SDS011;14589;51.578;7.306;2022-07-11T00:47:43;5.40;;;2.75;;
27039;SDS011;14589;51.578;7.306;2022-07-11T00:50:09;5.57;;;2.60;;
27039;SDS011;14589;51.578;7.306;2022-07-11T00:52:34;7.72;;;2.60;;
27039;SDS011;14589;51.578;7.306;2022-07-11T00:55:00;5.82;;;2.85;;
27039;SDS011;14589;51.578;7.306;2022-07-11T00:57:27;6.25;;;2.50;;
27039;SDS011;14589;51.578;7.306;2022-07-11T00:59:53;2.67;;;1.98;;
27039;SDS011;14589;51.578;7.306;2022-07-11T01:02:18;4.57;;;2.10;;
27039;SDS011;14589;51.578;7.306;2022-07-11T01:04:43;9.00;;;2.58;;
27039;SDS011;14589;51.578;7.306;2022-07-11T01:07:09;5.25;;;3.10;;
27039;SDS011;14589;51.578;7.306;2022-07-11T01:09:34;3.75;;;2.40;;
27039;SDS011;14589;51.578;7.306;2022-07-11T01:12:00;4.95;;;2.33;;
27039;SDS011;14589;51.578;7.306;2022-07-11T01:14:25;3.45;;;2.25;;
27039;SDS011;14589;51.578;7.306;2022-07-11T01:16:51;5.35;;;2.60;;
27039;SDS011;14589;51.578;7.306;2022-07-11T01:19:16;7.22;;;2.50;;
27039;SDS011;14589;51.578;7.306;2022-07-11T01:21:42;4.28;;;2.28;;
27039;SDS011;14589;51.578;7.306;2022-07-11T01:24:09;5.95;;;2.67;;
27039;SDS011;14589;51.578;7.306;2022-07-11T01:26:34;5.93;;;2.78;;
27039;SDS011;14589;51.578;7.306;2022-07-11T01:29:05;5.55;;;2.50;;
27039;SDS011;14589;51.578;7.306;2022-07-11T01:31:38;8.10;;;3.20;;
27039;SDS011;14589;51.578;7.306;2022-07-11T01:34:03;6.97;;;2.50;;
27039;SDS011;14589;51.578;7.306;2022-07-11T01:36:30;6.47;;;2.33;;
27039;SDS011;14589;51.578;7.306;2022-07-11T01:38:55;5.13;;;2.35;;
27039;SDS011;14589;51.578;7.306;2022-07-11T01:41:21;4.30;;;2.47;;
27039;SDS011;14589;51.578;7.306;2022-07-11T01:43:46;5.93;;;2.30;;
27039;SDS011;14589;51.578;7.306;2022-07-11T01:46:11;3.47;;;2.40;;
27039;SDS011;14589;51.578;7.306;2022-07-11T01:48:37;6.63;;;2.35;;
27039;SDS011;14589;51.578;7.306;2022-07-11T01:51:02;3.47;;;2.30;;
27039;SDS011;14589;51.578;7.306;2022-07-11T01:53:28;5.40;;;2.63;;
27039;SDS011;14589;51.578;7.306;2022-07-11T01:55:53;7.25;;;2.47;;
27039;SDS011;14589;51.578;7.306;2022-07-11T01:58:19;8.18;;;2.47;;
27039;SDS011;14589;51.578;7.306;2022-07-11T02:00:44;5.30;;;2.35;;
27039;SDS011;14589;51.578;7.306;2022-07-11T02:03:10;7.60;;;2.60;;
27039;SDS011;14589;51.578;7.306;2022-07-11T02:05:35;9.25;;;3.20;;
27039;SDS011;14589;51.578;7.306;2022-07-11T02:08:04;4.32;;;2.40;;
27039;SDS011;14589;51.578;7.306;2022-07-11T02:10:44;5.65;;;2.45;;
27039;SDS011;14589;51.578;7.306;2022-07-11T02:13:11;6.18;;;2.45;;
27039;SDS011;14589;51.578;7.306;2022-07-11T02:15:40;4.55;;;2.35;;
27039;SDS011;14589;51.578;7.306;2022-07-11T02:18:06;5.30;;;2.60;;
27039;SDS011;14589;51.578;7.306;2022-07-11T02:20:32;5.13;;;2.38;;
27039;SDS011;14589;51.578;7.306;2022-07-11T02:22:58;10.27;;;2.97;;
27039;SDS011;14589;51.578;7.306;2022-07-11T02:25:23;3.38;;;2.03;;
27039;SDS011;14589;51.578;7.306;2022-07-11T02:27:49;8.38;;;3.08;;
27039;SDS011;14589;51.578;7.306;2022-07-11T02:30:15;6.07;;;2.78;;
27039;SDS011;14589;51.578;7.306;2022-07-11T02:32:41;8.05;;;2.90;;
27039;SDS011;14589;51.578;7.306;2022-07-11T02:35:06;8.73;;;2.47;;
27039;SDS011;14589;51.578;7.306;2022-07-11T02:37:31;6.88;;;3.10;;
27039;SDS011;14589;51.578;7.306;2022-07-11T02:39:57;8.85;;;2.50;;
27039;SDS011;14589;51.578;7.306;2022-07-11T02:42:23;8.88;;;3.28;;
27039;SDS011;14589;51.578;7.306;2022-07-11T02:44:48;10.15;;;2.70;;
27039;SDS011;14589;51.578;7.306;2022-07-11T02:47:13;5.30;;;3.03;;
27039;SDS011;14589;51.578;7.306;2022-07-11T02:49:39;5.30;;;2.50;;
27039;SDS011;14589;51.578;7.306;2022-07-11T02:52:05;13.77;;;3.40;;
27039;SDS011;14589;51.578;7.306;2022-07-11T02:54:31;9.25;;;3.20;;
27039;SDS011;14589;51.578;7.306;2022-07-11T02:56:56;6.97;;;2.80;;
27039;SDS011;14589;51.578;7.306;2022-07-11T02:59:22;11.38;;;3.13;;
27039;SDS011;14589;51.578;7.306;2022-07-11T03:01:48;11.48;;;3.17;;
27039;SDS011;14589;51.578;7.306;2022-07-11T03:04:14;7.45;;;3.40;;
27039;SDS011;14589;51.578;7.306;2022-07-11T03:06:39;7.60;;;3.20;;
27039;SDS011;14589;51.578;7.306;2022-07-11T03:09:06;6.90;;;3.22;;
27039;SDS011;14589;51.578;7.306;2022-07-11T03:11:32;9.32;;;3.25;;
27039;SDS011;14589;51.578;7.306;2022-07-11T03:13:58;10.15;;;2.95;;
27039;SDS011;14589;51.578;7.306;2022-07-11T03:16:23;12.02;;;3.17;;
27039;SDS011;14589;51.578;7.306;2022-07-11T03:18:49;6.55;;;2.67;;
27039;SDS011;14589;51.578;7.306;2022-07-11T03:21:15;9.05;;;2.97;;
27039;SDS011;14589;51.578;7.306;2022-07-11T03:23:40;4.95;;;3.17;;
27039;SDS011;14589;51.578;7.306;2022-07-11T03:26:06;9.25;;;3.13;;
27039;SDS011;14589;51.578;7.306;2022-07-11T03:28:31;10.10;;;2.75;;
27039;SDS011;14589;51.578;7.306;2022-07-11T03:30:57;8.40;;;2.97;;
27039;SDS011;14589;51.578;7.306;2022-07-11T03:33:22;4.95;;;3.03;;
27039;SDS011;14589;51.578;7.306;2022-07-11T03:35:48;7.82;;;3.00;;
27039;SDS011;14589;51.578;7.306;2022-07-11T03:38:16;6.95;;;3.17;;
27039;SDS011;14589;51.578;7.306;2022-07-11T03:40:43;9.93;;;3.50;;
27039;SDS011;14589;51.578;7.306;2022-07-11T03:43:09;5.88;;;2.85;;
27039;SDS011;14589;51.578;7.306;2022-07-11T03:45:34;4.30;;;2.70;;
27039;SDS011;14589;51.578;7.306;2022-07-11T03:47:59;11.23;;;2.70;;
27039;SDS011;14589;51.578;7.306;2022-07-11T03:50:25;8.65;;;2.75;;
27039;SDS011;14589;51.578;7.306;2022-07-11T03:52:50;11.32;;;3.20;;
27039;SDS011;14589;51.578;7.306;2022-07-11T03:55:16;8.07;;;2.83;;
27039;SDS011;14589;51.578;7.306;2022-07-11T03:57:41;3.88;;;2.50;;
27039;SDS011;14589;51.578;7.306;2022-07-11T04:00:07;10.88;;;2.35;;
27039;SDS011;14589;51.578;7.306;2022-07-11T04:02:34;9.40;;;2.95;;
27039;SDS011;14589;51.578;7.306;2022-07-11T04:05:00;6.35;;;2.97;;
27039;SDS011;14589;51.578;7.306;2022-07-11T04:07:25;9.02;;;2.53;;
27039;SDS011;14589;51.578;7.306;2022-07-11T04:09:53;7.60;;;2.70;;
27039;SDS011;14589;51.578;7.306;2022-07-11T04:12:19;6.22;;;2.40;;
27039;SDS011;14589;51.578;7.306;2022-07-11T04:14:44;5.82;;;2.40;;
27039;SDS011;14589;51.578;7.306;2022-07-11T04:17:10;5.75;;;2.47;;
27039;SDS011;14589;51.578;7.306;2022-07-11T04:19:35;5.32;;;2.20;;
27039;SDS011;14589;51.578;7.306;2022-07-11T04:22:01;6.53;;;2.88;;
27039;SDS011;14589;51.578;7.306;2022-07-11T04:24:26;4.85;;;2.72;;
27039;SDS011;14589;51.578;7.306;2022-07-11T04:26:52;3.25;;;2.25;;
27039;SDS011;14589;51.578;7.306;2022-07-11T04:29:17;5.70;;;2.72;;
27039;SDS011;14589;51.578;7.306;2022-07-11T04:31:43;4.97;;;2.13;;
27039;SDS011;14589;51.578;7.306;2022-07-11T04:34:08;5.70;;;2.60;;
27039;SDS011;14589;51.578;7.306;2022-07-11T04:36:34;10.07;;;2.60;;
27039;SDS011;14589;51.578;7.306;2022-07-11T04:38:59;7.65;;;2.60;;
27039;SDS011;14589;51.578;7.306;2022-07-11T04:41:25;7.72;;;3.10;;
27039;SDS011;14589;51.578;7.306;2022-07-11T04:43:50;8.70;;;2.55;;
27039;SDS011;14589;51.578;7.306;2022-07-11T04:46:16;7.03;;;2.55;;
27039;SDS011;14589;51.578;7.306;2022-07-11T04:48:41;6.97;;;2.33;;
27039;SDS011;14589;51.578;7.306;2022-07-11T04:51:06;4.28;;;2.35;;
27039;SDS011;14589;51.578;7.306;2022-07-11T04:53:33;6.15;;;2.42;;
27039;SDS011;14589;51.578;7.306;2022-07-11T04:55:58;4.45;;;2.50;;
27039;SDS011;14589;51.578;7.306;2022-07-11T04:58:24;3.33;;;1.88;;
27039;SDS011;14589;51.578;7.306;2022-07-11T05:00:49;2.53;;;2.00;;
27039;SDS011;14589;51.578;7.306;2022-07-11T05:03:16;7.35;;;2.53;;
27039;SDS011;14589;51.578;7.306;2022-07-11T05:05:42;5.05;;;2.08;;
27039;SDS011;14589;51.578;7.306;2022-07-11T05:08:07;4.55;;;1.88;;
27039;SDS011;14589;51.578;7.306;2022-07-11T05:10:33;3.88;;;1.90;;
27039;SDS011;14589;51.578;7.306;2022-07-11T05:13:01;4.75;;;2.00;;
27039;SDS011;14589;51.578;7.306;2022-07-11T05:15:27;3.30;;;2.00;;
27039;SDS011;14589;51.578;7.306;2022-07-11T05:17:53;4.90;;;1.90;;
27039;SDS011;14589;51.578;7.306;2022-07-11T05:20:18;2.55;;;1.63;;
27039;SDS011;14589;51.578;7.306;2022-07-11T05:22:43;3.83;;;1.58;;
27039;SDS011;14589;51.578;7.306;2022-07-11T05:25:09;4.38;;;1.90;;
27039;SDS011;14589;51.578;7.306;2022-07-11T05:27:34;1.52;;;1.42;;
27039;SDS011;14589;51.578;7.306;2022-07-11T05:30:00;2.47;;;1.45;;
27039;SDS011;14589;51.578;7.306;2022-07-11T05:32:26;2.10;;;1.50;;
27039;SDS011;14589;51.578;7.306;2022-07-11T05:34:51;5.05;;;1.55;;
27039;SDS011;14589;51.578;7.306;2022-07-11T05:37:17;6.07;;;2.20;;
27039;SDS011;14589;51.578;7.306;2022-07-11T05:39:42;4.65;;;1.70;;
27039;SDS011;14589;51.578;7.306;2022-07-11T05:42:07;2.30;;;1.20;;
27039;SDS011;14589;51.578;7.306;2022-07-11T05:44:33;1.95;;;1.40;;
27039;SDS011;14589;51.578;7.306;2022-07-11T05:47:02;1.50;;;1.40;;
27039;SDS011;14589;51.578;7.306;2022-07-11T05:49:28;4.53;;;1.17;;
27039;SDS011;14589;51.578;7.306;2022-07-11T05:51:55;1.55;;;1.10;;
27039;SDS011;14589;51.578;7.306;2022-07-11T05:54:20;0.90;;;0.65;;
27039;SDS011;14589;51.578;7.306;2022-07-11T05:56:46;0.65;;;0.65;;
27039;SDS011;14589;51.578;7.306;2022-07-11T05:59:11;0.85;;;0.80;;
27039;SDS011;14589;51.578;7.306;2022-07-11T06:01:37;0.80;;;0.63;;
27039;SDS011;14589;51.578;7.306;2022-07-11T06:04:02;0.70;;;0.70;;
27039;SDS011;14589;51.578;7.306;2022-07-11T06:06:28;2.78;;;0.80;;
27039;SDS011;14589;51.578;7.306;2022-07-11T06:08:53;2.80;;;0.70;;
27039;SDS011;14589;51.578;7.306;2022-07-11T06:11:19;1.40;;;0.80;;
27039;SDS011;14589;51.578;7.306;2022-07-11T06:13:45;0.80;;;0.80;;
27039;SDS011;14589;51.578;7.306;2022-07-11T06:16:10;0.63;;;0.63;;
27039;SDS011;14589;51.578;7.306;2022-07-11T06:18:36;2.25;;;0.80;;
27039;SDS011;14589;51.578;7.306;2022-07-11T06:21:03;1.20;;;0.70;;
27039;SDS011;14589;51.578;7.306;2022-07-11T06:23:29;1.48;;;0.80;;
27039;SDS011;14589;51.578;7.306;2022-07-11T06:25:55;1.30;;;0.90;;
27039;SDS011;14589;51.578;7.306;2022-07-11T06:28:21;0.77;;;0.68;;
27039;SDS011;14589;51.578;7.306;2022-07-11T06:30:46;1.30;;;1.00;;
27039;SDS011;14589;51.578;7.306;2022-07-11T06:33:12;0.95;;;0.80;;
27039;SDS011;14589;51.578;7.306;2022-07-11T06:35:37;2.35;;;0.95;;
27039;SDS011;14589;51.578;7.306;2022-07-11T06:38:03;0.63;;;0.63;;
27039;SDS011;14589;51.578;7.306;2022-07-11T06:40:28;1.15;;;0.80;;
27039;SDS011;14589;51.578;7.306;2022-07-11T06:42:54;1.65;;;0.90;;
27039;SDS011;14589;51.578;7.306;2022-07-11T06:45:19;1.02;;;0.70;;
27039;SDS011;14589;51.578;7.306;2022-07-11T06:47:45;1.02;;;0.93;;
27039;SDS011;14589;51.578;7.306;2022-07-11T06:50:10;1.75;;;0.73;;
27039;SDS011;14589;51.578;7.306;2022-07-11T06:52:36;1.10;;;0.82;;
27039;SDS011;14589;51.578;7.306;2022-07-11T06:55:02;1.73;;;0.60;;
27039;SDS011;14589;51.578;7.306;2022-07-11T06:57:27;1.10;;;0.70;;
27039;SDS011;14589;51.578;7.306;2022-07-11T06:59:53;0.70;;;0.70;;
27039;SDS011;14589;51.578;7.306;2022-07-11T07:02:18;1.15;;;0.60;;
27039;SDS011;14589;51.578;7.306;2022-07-11T07:04:44;1.35;;;0.75;;
27039;SDS011;14589;51.578;7.306;2022-07-11T07:07:09;1.45;;;0.57;;
27039;SDS011;14589;51.578;7.306;2022-07-11T07:09:34;3.22;;;0.80;;
27039;SDS011;14589;51.578;7.306;2022-07-11T07:12:00;2.45;;;0.73;;
27039;SDS011;14589;51.578;7.306;2022-07-11T07:14:25;0.90;;;0.70;;
27039;SDS011;14589;51.578;7.306;2022-07-11T07:16:51;0.65;;;0.60;;
27039;SDS011;14589;51.578;7.306;2022-07-11T07:19:17;1.42;;;0.68;;
27039;SDS011;14589;51.578;7.306;2022-07-11T07:21:42;0.90;;;0.70;;
27039;SDS011;14589;51.578;7.306;2022-07-11T07:24:07;2.83;;;1.10;;
27039;SDS011;14589;51.578;7.306;2022-07-11T07:26:33;1.38;;;0.70;;
27039;SDS011;14589;51.578;7.306;2022-07-11T07:28:58;1.13;;;0.80;;
27039;SDS011;14589;51.578;7.306;2022-07-11T07:31:24;0.80;;;0.80;;
27039;SDS011;14589;51.578;7.306;2022-07-11T07:33:49;0.82;;;0.80;;
27039;SDS011;14589;51.578;7.306;2022-07-11T07:36:15;1.15;;;0.50;;
27039;SDS011;14589;51.578;7.306;2022-07-11T07:38:41;0.80;;;0.80;;
27039;SDS011;14589;51.578;7.306;2022-07-11T07:41:09;2.55;;;1.00;;
27039;SDS011;14589;51.578;7.306;2022-07-11T07:43:35;1.27;;;0.95;;
27039;SDS011;14589;51.578;7.306;2022-07-11T07:46:00;3.38;;;1.10;;
27039;SDS011;14589;51.578;7.306;2022-07-11T07:48:26;3.53;;;0.80;;
27039;SDS011;14589;51.578;7.306;2022-07-11T07:50:54;1.23;;;0.88;;
27039;SDS011;14589;51.578;7.306;2022-07-11T07:53:19;1.52;;;0.95;;
27039;SDS011;14589;51.578;7.306;2022-07-11T07:55:45;4.18;;;1.17;;
27039;SDS011;14589;51.578;7.306;2022-07-11T07:58:10;1.10;;;1.00;;
27039;SDS011;14589;51.578;7.306;2022-07-11T08:00:36;1.75;;;0.93;;
27039;SDS011;14589;51.578;7.306;2022-07-11T08:03:20;2.38;;;0.93;;
27039;SDS011;14589;51.578;7.306;2022-07-11T08:05:45;1.83;;;0.90;;
27039;SDS011;14589;51.578;7.306;2022-07-11T08:08:11;1.08;;;0.95;;
27039;SDS011;14589;51.578;7.306;2022-07-11T08:10:36;4.47;;;1.73;;
27039;SDS011;14589;51.578;7.306;2022-07-11T08:13:02;3.92;;;1.60;;
27039;SDS011;14589;51.578;7.306;2022-07-11T08:15:28;2.15;;;1.70;;
27039;SDS011;14589;51.578;7.306;2022-07-11T08:17:53;3.63;;;1.65;;
27039;SDS011;14589;51.578;7.306;2022-07-11T08:20:18;2.88;;;1.40;;
27039;SDS011;14589;51.578;7.306;2022-07-11T08:22:45;1.52;;;1.42;;
27039;SDS011;14589;51.578;7.306;2022-07-11T08:25:10;2.53;;;1.50;;
27039;SDS011;14589;51.578;7.306;2022-07-11T08:27:36;1.40;;;1.30;;
27039;SDS011;14589;51.578;7.306;2022-07-11T08:30:04;1.60;;;1.00;;
27039;SDS011;14589;51.578;7.306;2022-07-11T08:32:33;3.15;;;1.60;;
27039;SDS011;14589;51.578;7.306;2022-07-11T08:34:58;3.13;;;1.65;;
27039;SDS011;14589;51.578;7.306;2022-07-11T08:37:24;1.30;;;1.20;;
27039;SDS011;14589;51.578;7.306;2022-07-11T08:39:50;1.33;;;1.23;;
27039;SDS011;14589;51.578;7.306;2022-07-11T08:42:18;1.42;;;1.10;;
27039;SDS011;14589;51.578;7.306;2022-07-11T08:44:44;1.50;;;0.98;;
27039;SDS011;14589;51.578;7.306;2022-07-11T08:47:09;2.53;;;1.17;;
27039;SDS011;14589;51.578;7.306;2022-07-11T08:49:36;2.22;;;1.38;;
27039;SDS011;14589;51.578;7.306;2022-07-11T08:52:02;1.00;;;0.90;;
27039;SDS011;14589;51.578;7.306;2022-07-11T08:54:28;0.85;;;0.85;;
27039;SDS011;14589;51.578;7.306;2022-07-11T08:56:54;0.90;;;0.90;;
27039;SDS011;14589;51.578;7.306;2022-07-11T08:59:21;1.20;;;1.10;;
27039;SDS011;14589;51.578;7.306;2022-07-11T09:01:48;0.93;;;0.80;;
27039;SDS011;14589;51.578;7.306;2022-07-11T09:04:14;0.73;;;0.68;;
27039;SDS011;14589;51.578;7.306;2022-07-11T09:06:40;1.10;;;1.00;;
27039;SDS011;14589;51.578;7.306;2022-07-11T09:09:06;4.10;;;1.10;;
27039;SDS011;14589;51.578;7.306;2022-07-11T09:11:53;1.40;;;0.82;;
27039;SDS011;14589;51.578;7.306;2022-07-11T09:14:21;2.65;;;0.90;;
27039;SDS011;14589;51.578;7.306;2022-07-11T09:16:55;1.00;;;0.90;;
27039;SDS011;14589;51.578;7.306;2022-07-11T09:19:24;1.65;;;1.55;;
27039;SDS011;14589;51.578;7.306;2022-07-11T09:21:58;2.38;;;2.10;;
27039;SDS011;14589;51.578;7.306;2022-07-11T09:24:53;4.13;;;2.75;;
27039;SDS011;14589;51.578;7.306;2022-07-11T09:27:45;3.45;;;2.53;;
27039;SDS011;14589;51.578;7.306;2022-07-11T09:35:39;4.78;;;2.08;;
27039;SDS011;14589;51.578;7.306;2022-07-11T09:38:10;3.42;;;1.80;;
27039;SDS011;14589;51.578;7.306;2022-07-11T09:40:37;2.58;;;2.20;;
27039;SDS011;14589;51.578;7.306;2022-07-11T09:43:03;2.17;;;2.00;;
27039;SDS011;14589;51.578;7.306;2022-07-11T09:45:30;1.98;;;1.70;;
27039;SDS011;14589;51.578;7.306;2022-07-11T09:48:15;1.73;;;1.27;;
27039;SDS011;14589;51.578;7.306;2022-07-11T09:50:53;1.30;;;1.20;;
27039;SDS011;14589;51.578;7.306;2022-07-11T09:53:21;3.05;;;1.00;;
27039;SDS011;14589;51.578;7.306;2022-07-11T09:55:46;1.20;;;1.10;;
27039;SDS011;14589;51.578;7.306;2022-07-11T09:58:12;1.15;;;0.80;;
27039;SDS011;14589;51.578;7.306;2022-07-11T10:00:41;0.88;;;0.88;;
27039;SDS011;14589;51.578;7.306;2022-07-11T10:03:08;1.90;;;1.50;;
27039;SDS011;14589;51.578;7.306;2022-07-11T10:05:35;2.25;;;1.60;;
27039;SDS011;14589;51.578;7.306;2022-07-11T10:08:01;3.42;;;2.10;;
27039;SDS011;14589;51.578;7.306;2022-07-11T10:10:27;2.47;;;1.42;;
27039;SDS011;14589;51.578;7.306;2022-07-11T10:12:54;2.90;;;1.70;;
27039;SDS011;14589;51.578;7.306;2022-07-11T10:15:24;1.40;;;1.00;;
27039;SDS011;14589;51.578;7.306;2022-07-11T10:23:14;2.15;;;0.90;;
27039;SDS011;14589;51.578;7.306;2022-07-11T10:26:03;0.90;;;0.90;;
27039;SDS011;14589;51.578;7.306;2022-07-11T10:31:00;1.58;;;0.73;;
27039;SDS011;14589;51.578;7.306;2022-07-11T10:33:27;0.90;;;0.60;;
27039;SDS011;14589;51.578;7.306;2022-07-11T10:35:53;2.30;;;0.70;;
27039;SDS011;14589;51.578;7.306;2022-07-11T10:38:19;0.60;;;0.60;;
27039;SDS011;14589;51.578;7.306;2022-07-11T10:40:46;2.15;;;0.68;;
27039;SDS011;14589;51.578;7.306;2022-07-11T10:48:36;0.68;;;0.60;;
27039;SDS011;14589;51.578;7.306;2022-07-11T10:51:22;0.60;;;0.60;;
27039;SDS011;14589;51.578;7.306;2022-07-11T10:53:50;0.80;;;0.63;;
27039;SDS011;14589;51.578;7.306;2022-07-11T10:58:42;2.05;;;0.90;;
27039;SDS011;14589;51.578;7.306;2022-07-11T11:01:11;0.80;;;0.68;;
27039;SDS011;14589;51.578;7.306;2022-07-11T11:03:41;1.15;;;0.60;;
27039;SDS011;14589;51.578;7.306;2022-07-11T11:06:08;0.63;;;0.63;;
27039;SDS011;14589;51.578;7.306;2022-07-11T11:11:34;1.45;;;0.70;;
27039;SDS011;14589;51.578;7.306;2022-07-11T11:16:46;0.88;;;0.88;;
27039;SDS011;14589;51.578;7.306;2022-07-11T11:22:16;0.98;;;0.80;;
27039;SDS011;14589;51.578;7.306;2022-07-11T11:24:43;3.70;;;0.90;;
27039;SDS011;14589;51.578;7.306;2022-07-11T11:27:42;1.70;;;0.80;;
27039;SDS011;14589;51.578;7.306;2022-07-11T11:30:00;1.02;;;0.75;;
27039;SDS011;14589;51.578;7.306;2022-07-11T11:32:30;1.25;;;0.80;;
27039;SDS011;14589;51.578;7.306;2022-07-11T11:34:56;0.70;;;0.70;;
27039;SDS011;14589;51.578;7.306;2022-07-11T11:37:22;0.93;;;0.70;;
27039;SDS011;14589;51.578;7.306;2022-07-11T11:39:54;0.88;;;0.70;;
27039;SDS011;14589;51.578;7.306;2022-07-11T11:42:22;1.33;;;0.60;;
27039;SDS011;14589;51.578;7.306;2022-07-11T11:44:55;1.63;;;1.10;;
27039;SDS011;14589;51.578;7.306;2022-07-11T11:47:24;0.60;;;0.60;;
27039;SDS011;14589;51.578;7.306;2022-07-11T11:49:50;1.15;;;0.70;;
27039;SDS011;14589;51.578;7.306;2022-07-11T11:52:16;0.95;;;0.80;;
27039;SDS011;14589;51.578;7.306;2022-07-11T11:54:42;0.98;;;0.70;;
27039;SDS011;14589;51.578;7.306;2022-07-11T11:57:08;1.33;;;0.70;;
27039;SDS011;14589;51.578;7.306;2022-07-11T11:59:38;1.20;;;0.90;;
27039;SDS011;14589;51.578;7.306;2022-07-11T12:02:06;0.90;;;0.80;;
27039;SDS011;14589;51.578;7.306;2022-07-11T12:04:33;0.77;;;0.70;;
27039;SDS011;14589;51.578;7.306;2022-07-11T12:07:01;0.73;;;0.70;;
27039;SDS011;14589;51.578;7.306;2022-07-11T12:09:28;1.10;;;0.73;;
27039;SDS011;14589;51.578;7.306;2022-07-11T12:12:16;5.45;;;0.80;;
27039;SDS011;14589;51.578;7.306;2022-07-11T12:15:01;1.77;;;0.93;;
27039;SDS011;14589;51.578;7.306;2022-07-11T12:17:27;2.55;;;1.00;;
27039;SDS011;14589;51.578;7.306;2022-07-11T12:19:54;2.42;;;0.93;;
27039;SDS011;14589;51.578;7.306;2022-07-11T12:22:20;0.68;;;0.63;;
27039;SDS011;14589;51.578;7.306;2022-07-11T12:24:49;0.77;;;0.70;;
27039;SDS011;14589;51.578;7.306;2022-07-11T12:27:19;2.72;;;0.88;;
27039;SDS011;14589;51.578;7.306;2022-07-11T12:29:49;1.20;;;0.98;;
27039;SDS011;14589;51.578;7.306;2022-07-11T12:32:16;0.73;;;0.68;;
27039;SDS011;14589;51.578;7.306;2022-07-11T12:34:43;1.92;;;0.82;;
27039;SDS011;14589;51.578;7.306;2022-07-11T12:37:12;2.55;;;1.00;;
27039;SDS011;14589;51.578;7.306;2022-07-11T12:39:40;0.98;;;0.68;;
27039;SDS011;14589;51.578;7.306;2022-07-11T12:42:25;0.88;;;0.70;;
27039;SDS011;14589;51.578;7.306;2022-07-11T12:45:08;1.17;;;0.80;;
27039;SDS011;14589;51.578;7.306;2022-07-11T12:47:38;1.23;;;0.88;;
27039;SDS011;14589;51.578;7.306;2022-07-11T12:50:15;0.60;;;0.60;;
27039;SDS011;14589;51.578;7.306;2022-07-11T12:52:48;1.20;;;1.10;;
27039;SDS011;14589;51.578;7.306;2022-07-11T12:55:26;1.50;;;1.00;;
27039;SDS011;14589;51.578;7.306;2022-07-11T13:00:34;1.15;;;1.15;;
27039;SDS011;14589;51.578;7.306;2022-07-11T13:03:02;1.30;;;1.20;;
27039;SDS011;14589;51.578;7.306;2022-07-11T13:05:28;1.30;;;1.20;;
27039;SDS011;14589;51.578;7.306;2022-07-11T13:07:53;0.90;;;0.80;;
27039;SDS011;14589;51.578;7.306;2022-07-11T13:10:38;1.20;;;1.10;;
27039;SDS011;14589;51.578;7.306;2022-07-11T13:13:19;1.77;;;1.13;;
27039;SDS011;14589;51.578;7.306;2022-07-11T13:15:45;1.15;;;1.00;;
27039;SDS011;14589;51.578;7.306;2022-07-11T13:18:16;1.65;;;1.30;;
27039;SDS011;14589;51.578;7.306;2022-07-11T13:20:41;4.20;;;1.35;;
27039;SDS011;14589;51.578;7.306;2022-07-11T13:23:07;2.90;;;1.38;;
27039;SDS011;14589;51.578;7.306;2022-07-11T13:25:33;1.55;;;1.30;;
27039;SDS011;14589;51.578;7.306;2022-07-11T13:27:58;1.25;;;1.13;;
27039;SDS011;14589;51.578;7.306;2022-07-11T13:30:24;1.58;;;1.30;;
27039;SDS011;14589;51.578;7.306;2022-07-11T13:32:56;1.10;;;1.10;;
27039;SDS011;14589;51.578;7.306;2022-07-11T13:35:22;1.15;;;1.10;;
27039;SDS011;14589;51.578;7.306;2022-07-11T13:37:48;0.95;;;0.95;;
27039;SDS011;14589;51.578;7.306;2022-07-11T13:40:15;1.73;;;1.50;;
27039;SDS011;14589;51.578;7.306;2022-07-11T13:42:42;1.65;;;1.40;;
27039;SDS011;14589;51.578;7.306;2022-07-11T13:45:12;5.72;;;1.80;;
27039;SDS011;14589;51.578;7.306;2022-07-11T13:47:38;2.42;;;2.22;;
27039;SDS011;14589;51.578;7.306;2022-07-11T13:50:04;4.00;;;2.13;;
27039;SDS011;14589;51.578;7.306;2022-07-11T13:52:30;2.20;;;2.08;;
27039;SDS011;14589;51.578;7.306;2022-07-11T13:54:56;3.10;;;2.90;;
27039;SDS011;14589;51.578;7.306;2022-07-11T13:57:21;2.40;;;2.20;;
27039;SDS011;14589;51.578;7.306;2022-07-11T13:59:47;2.10;;;2.00;;
27039;SDS011;14589;51.578;7.306;2022-07-11T14:02:13;2.20;;;2.10;;
27039;SDS011;14589;51.578;7.306;2022-07-11T14:04:38;2.38;;;1.50;;
27039;SDS011;14589;51.578;7.306;2022-07-11T14:07:04;3.45;;;1.50;;
27039;SDS011;14589;51.578;7.306;2022-07-11T14:09:29;1.10;;;1.10;;
27039;SDS011;14589;51.578;7.306;2022-07-11T14:11:56;3.25;;;1.23;;
27039;SDS011;14589;51.578;7.306;2022-07-11T14:14:21;2.17;;;1.05;;
27039;SDS011;14589;51.578;7.306;2022-07-11T14:16:47;1.30;;;1.30;;
27039;SDS011;14589;51.578;7.306;2022-07-11T14:19:13;2.22;;;1.35;;
27039;SDS011;14589;51.578;7.306;2022-07-11T14:21:38;1.30;;;1.00;;
27039;SDS011;14589;51.578;7.306;2022-07-11T14:24:05;3.25;;;1.50;;
27039;SDS011;14589;51.578;7.306;2022-07-11T14:26:31;1.50;;;1.40;;
27039;SDS011;14589;51.578;7.306;2022-07-11T14:28:58;2.00;;;1.73;;
27039;SDS011;14589;51.578;7.306;2022-07-11T14:31:23;1.40;;;1.30;;
27039;SDS011;14589;51.578;7.306;2022-07-11T14:33:49;1.20;;;1.10;;
27039;SDS011;14589;51.578;7.306;2022-07-11T14:36:15;1.25;;;1.20;;
27039;SDS011;14589;51.578;7.306;2022-07-11T14:38:41;4.28;;;1.08;;
27039;SDS011;14589;51.578;7.306;2022-07-11T14:41:07;0.80;;;0.80;;
27039;SDS011;14589;51.578;7.306;2022-07-11T14:43:33;1.33;;;1.00;;
27039;SDS011;14589;51.578;7.306;2022-07-11T14:45:59;1.13;;;1.08;;
27039;SDS011;14589;51.578;7.306;2022-07-11T14:48:25;0.80;;;0.80;;
27039;SDS011;14589;51.578;7.306;2022-07-11T14:50:50;1.20;;;1.10;;
27039;SDS011;14589;51.578;7.306;2022-07-11T14:53:16;1.00;;;1.00;;
27039;SDS011;14589;51.578;7.306;2022-07-11T14:55:41;1.10;;;1.10;;
27039;SDS011;14589;51.578;7.306;2022-07-11T14:58:07;1.15;;;1.08;;
27039;SDS011;14589;51.578;7.306;2022-07-11T15:00:32;1.08;;;0.98;;
27039;SDS011;14589;51.578;7.306;2022-07-11T15:02:58;0.82;;;0.80;;
27039;SDS011;14589;51.578;7.306;2022-07-11T15:05:42;0.60;;;0.60;;
27039;SDS011;14589;51.578;7.306;2022-07-11T15:08:08;0.60;;;0.60;;
27039;SDS011;14589;51.578;7.306;2022-07-11T15:10:51;0.65;;;0.50;;
27039;SDS011;14589;51.578;7.306;2022-07-11T15:13:35;1.27;;;0.50;;
27039;SDS011;14589;51.578;7.306;2022-07-11T15:16:01;1.10;;;0.80;;
27039;SDS011;14589;51.578;7.306;2022-07-11T15:18:27;1.75;;;0.80;;
27039;SDS011;14589;51.578;7.306;2022-07-11T15:20:53;0.80;;;0.80;;